Boise, ID

3:17 PM MDT on August 21, 2019 (GMT -0600)
Legend Ridge | | Change Station
Active Advisory: Wind Advisory

Elev 3051 ft 43.54 °N, 116.15 °W | Updated 1 minute ago

Clear
Clear
90.8 °F
Feels Like 88 °F
N
3
Wind Variable Wind from NNW
Gusts 7.0 mph

Today
High -- | Low -- °F
--% Chance of Precip.
Yesterday
High -- | Low -- °F
Precip. -- in
Pressure 29.79 in
Visibility 10.0 miles
Clouds Clear
Heat Index 88 °F
Dew Point 49 °F
Humidity 24%
Rainfall 0.00 in
Snow Depth Not available.
6:56 AM 8:38 PM
Waning Gibbous, 67% visible
METAR KBOI 212053Z 31008KT 10SM CLR 33/07 A2989 RMK AO2 SLP087 T03280072 58023
Pressure 29.79 in
Visibility 10.0 miles
Clouds Clear
Heat Index 88 °F
Dew Point 49 °F
Humidity 24%
Rainfall 0.00 in
Snow Depth Not available.
6:56 AM 8:38 PM
Waning Gibbous, 67% visible
METAR KBOI 212053Z 31008KT 10SM CLR 33/07 A2989 RMK AO2 SLP087 T03280072 58023

Get Your Daily Forecast Email!

Thanks for signing up!

Be on the lookout for a verification email in your inbox.

You'll start receiving severe weather alerts in your inbox..

×

10-Day Weather Forecast

Almanac

Astronomy

Aug. 21, 2019 Rise Set
Actual Time
Civil Twilight
Nautical Twilight
Astronomical Twilight
Moon
Length of Visible Light
Length of Day
Tomorrow will be .
, % of the Moon is Illuminated

Today's Extremes

State Highs State Lows

Community

WunderPhotos

Category 6

Welcome to Category 6. This is the collective home for Weather Underground's featured writeups by Dr. Jeff Masters (right), Bob Henson (left), Chris Burt, and other regular contributors.

Nearby

Air Quality

  Air Quality AQ Index Pollutant
Not available.

Snow Depth

Station Depth Elevation

Earthquake Activity

City Distance Mag. Time & Date
Minimum magnitude displayed is 2.5.

Coastal Water Temperatures

Place Temperature

Stations

Nearby Weather Stations

Station Location Temp. Windchill Dew Point Humidity Wind Precip. Elev Updated Type
                   

Watches & Warnings

Wind Advisory
Issued: 1:30 PM PDT Aug. 21, 2019 – National Weather Service

... Wind Advisory remains in effect from 9 PM MDT /8 PM PDT/ this
evening to 3 am MDT /2 am PDT/ Thursday...

* winds... sustained around 30 mph with gusts to 50 mph. Locally
higher gusts across elevated and open terrain to include the
Mountain Home area.

* Timing... late evening.

* Impacts... cross winds will create a travel hazard for high-
profile or lightweight vehicles, especially on north-south
roads. Locally reduced visibility due to blowing dust.

Precautionary/preparedness actions...

A Wind Advisory means that winds of 30 mph are expected. Winds
this strong can make driving difficult, especially for high
profile vehicles. Use extra caution.